sensor_id;sensor_type;location;lat;lon;timestamp;pressure;altitude;pressure_sealevel;temperature;humidity
72359;BME280;60317;48.880;-0.862;2023-07-31T00:01:27;100409.75;;;20.12;62.78
72359;BME280;60317;48.880;-0.862;2023-07-31T00:03:53;100412.44;;;20.12;62.66
72359;BME280;60317;48.880;-0.862;2023-07-31T00:06:20;100413.28;;;20.13;62.59
72359;BME280;60317;48.880;-0.862;2023-07-31T00:08:46;100408.06;;;20.11;62.71
72359;BME280;60317;48.880;-0.862;2023-07-31T00:11:13;100403.66;;;20.10;62.80
72359;BME280;60317;48.880;-0.862;2023-07-31T00:13:40;100406.22;;;20.12;62.81
72359;BME280;60317;48.880;-0.862;2023-07-31T00:16:07;100406.22;;;20.12;62.76
72359;BME280;60317;48.880;-0.862;2023-07-31T00:18:34;100406.22;;;20.12;62.79
72359;BME280;60317;48.880;-0.862;2023-07-31T00:21:00;100392.06;;;20.10;62.86
72359;BME280;60317;48.880;-0.862;2023-07-31T00:23:27;100400.00;;;20.11;62.77
72359;BME280;60317;48.880;-0.862;2023-07-31T00:25:53;100389.28;;;20.11;62.68
72359;BME280;60317;48.880;-0.862;2023-07-31T00:28:20;100395.50;;;20.12;62.72
72359;BME280;60317;48.880;-0.862;2023-07-31T00:30:46;100396.44;;;20.11;62.99
72359;BME280;60317;48.880;-0.862;2023-07-31T00:33:14;100390.13;;;20.12;62.76
72359;BME280;60317;48.880;-0.862;2023-07-31T00:35:41;100382.19;;;20.10;62.72
72359;BME280;60317;48.880;-0.862;2023-07-31T00:38:07;100384.88;;;20.10;62.85
72359;BME280;60317;48.880;-0.862;2023-07-31T00:40:35;100379.66;;;20.09;62.88
72359;BME280;60317;48.880;-0.862;2023-07-31T00:43:02;100386.72;;;20.10;62.76
72359;BME280;60317;48.880;-0.862;2023-07-31T00:45:29;100378.66;;;20.10;62.91
72359;BME280;60317;48.880;-0.862;2023-07-31T00:47:56;100374.28;;;20.09;62.89
72359;BME280;60317;48.880;-0.862;2023-07-31T00:50:24;100367.94;;;20.10;62.60
72359;BME280;60317;48.880;-0.862;2023-07-31T00:52:51;100362.56;;;20.10;62.86
72359;BME280;60317;48.880;-0.862;2023-07-31T00:55:18;100361.56;;;20.11;62.80
72359;BME280;60317;48.880;-0.862;2023-07-31T00:57:45;100362.56;;;20.10;62.85
72359;BME280;60317;48.880;-0.862;2023-07-31T01:00:12;100366.25;;;20.09;62.83
72359;BME280;60317;48.880;-0.862;2023-07-31T01:02:38;100357.19;;;20.10;62.98
72359;BME280;60317;48.880;-0.862;2023-07-31T01:05:06;100353.66;;;20.09;63.02
72359;BME280;60317;48.880;-0.862;2023-07-31T01:07:42;100350.25;;;20.07;63.08
72359;BME280;60317;48.880;-0.862;2023-07-31T01:10:15;100360.88;;;20.09;63.13
72359;BME280;60317;48.880;-0.862;2023-07-31T01:12:44;100356.34;;;20.09;63.12
72359;BME280;60317;48.880;-0.862;2023-07-31T01:15:11;100358.19;;;20.09;63.04
72359;BME280;60317;48.880;-0.862;2023-07-31T01:17:38;100360.88;;;20.09;63.00
72359;BME280;60317;48.880;-0.862;2023-07-31T01:20:09;100356.34;;;20.09;63.17
72359;BME280;60317;48.880;-0.862;2023-07-31T01:28:20;100346.72;;;20.07;63.22
72359;BME280;60317;48.880;-0.862;2023-07-31T01:30:48;100341.25;;;20.08;63.27
72359;BME280;60317;48.880;-0.862;2023-07-31T01:33:15;100335.88;;;20.08;63.29
72359;BME280;60317;48.880;-0.862;2023-07-31T01:35:44;100338.56;;;20.08;63.36
72359;BME280;60317;48.880;-0.862;2023-07-31T01:38:11;100335.00;;;20.08;63.29
72359;BME280;60317;48.880;-0.862;2023-07-31T01:40:41;100335.88;;;20.08;63.34
72359;BME280;60317;48.880;-0.862;2023-07-31T01:43:08;100330.50;;;20.08;63.34
72359;BME280;60317;48.880;-0.862;2023-07-31T01:45:36;100335.00;;;20.08;63.71
72359;BME280;60317;48.880;-0.862;2023-07-31T01:48:02;100326.00;;;20.09;63.49
72359;BME280;60317;48.880;-0.862;2023-07-31T01:50:29;100315.38;;;20.07;63.50
72359;BME280;60317;48.880;-0.862;2023-07-31T01:52:55;100307.31;;;20.07;63.57
72359;BME280;60317;48.880;-0.862;2023-07-31T01:55:22;100307.31;;;20.07;63.58
72359;BME280;60317;48.880;-0.862;2023-07-31T01:57:48;100295.75;;;20.07;63.61
72359;BME280;60317;48.880;-0.862;2023-07-31T02:00:15;100287.69;;;20.07;63.68
72359;BME280;60317;48.880;-0.862;2023-07-31T02:02:43;100284.19;;;20.06;63.74
72359;BME280;60317;48.880;-0.862;2023-07-31T02:05:09;100282.34;;;20.07;63.60
72359;BME280;60317;48.880;-0.862;2023-07-31T02:07:36;100282.34;;;20.07;63.74
72359;BME280;60317;48.880;-0.862;2023-07-31T02:10:02;100281.50;;;20.06;63.74
72359;BME280;60317;48.880;-0.862;2023-07-31T02:12:29;100285.03;;;20.07;63.84
72359;BME280;60317;48.880;-0.862;2023-07-31T02:14:56;100293.91;;;20.07;63.73
72359;BME280;60317;48.880;-0.862;2023-07-31T02:17:22;100281.50;;;20.06;63.78
72359;BME280;60317;48.880;-0.862;2023-07-31T02:19:50;100275.28;;;20.06;63.91
72359;BME280;60317;48.880;-0.862;2023-07-31T02:22:17;100276.13;;;20.06;63.74
72359;BME280;60317;48.880;-0.862;2023-07-31T02:24:43;100265.53;;;20.05;63.65
72359;BME280;60317;48.880;-0.862;2023-07-31T02:27:10;100265.41;;;20.06;63.74
72359;BME280;60317;48.880;-0.862;2023-07-31T02:29:36;100258.34;;;20.05;64.00
72359;BME280;60317;48.880;-0.862;2023-07-31T02:32:03;100244.09;;;20.05;63.90
72359;BME280;60317;48.880;-0.862;2023-07-31T02:34:30;100244.94;;;20.05;63.93
72359;BME280;60317;48.880;-0.862;2023-07-31T02:36:57;100241.41;;;20.05;63.85
72359;BME280;60317;48.880;-0.862;2023-07-31T02:39:24;100244.09;;;20.05;63.95
72359;BME280;60317;48.880;-0.862;2023-07-31T02:41:50;100230.66;;;20.05;63.87
72359;BME280;60317;48.880;-0.862;2023-07-31T02:44:17;100235.88;;;20.06;63.87
72359;BME280;60317;48.880;-0.862;2023-07-31T02:46:43;100229.66;;;20.06;63.92
72359;BME280;60317;48.880;-0.862;2023-07-31T02:49:10;100234.19;;;20.05;63.76
72359;BME280;60317;48.880;-0.862;2023-07-31T02:51:36;100227.84;;;20.06;63.99
72359;BME280;60317;48.880;-0.862;2023-07-31T02:54:04;100216.25;;;20.06;63.73
72359;BME280;60317;48.880;-0.862;2023-07-31T02:56:31;100213.56;;;20.06;63.85
72359;BME280;60317;48.880;-0.862;2023-07-31T02:58:57;100224.31;;;20.06;63.81
72359;BME280;60317;48.880;-0.862;2023-07-31T03:01:24;100217.25;;;20.05;63.93
72359;BME280;60317;48.880;-0.862;2023-07-31T03:03:50;100209.06;;;20.06;63.78
72359;BME280;60317;48.880;-0.862;2023-07-31T03:06:17;100217.25;;;20.05;63.90
72359;BME280;60317;48.880;-0.862;2023-07-31T03:08:43;100203.84;;;20.05;64.04
72359;BME280;60317;48.880;-0.862;2023-07-31T03:11:11;100192.38;;;20.02;63.94
72359;BME280;60317;48.880;-0.862;2023-07-31T03:13:38;100180.66;;;20.03;63.96
72359;BME280;60317;48.880;-0.862;2023-07-31T03:16:04;100183.34;;;20.03;63.97
72359;BME280;60317;48.880;-0.862;2023-07-31T03:18:31;100179.69;;;20.05;63.86
72359;BME280;60317;48.880;-0.862;2023-07-31T03:20:57;100181.50;;;20.04;63.83
72359;BME280;60317;48.880;-0.862;2023-07-31T03:23:24;100178.81;;;20.04;63.87
72359;BME280;60317;48.880;-0.862;2023-07-31T03:25:59;100181.66;;;20.02;63.95
72359;BME280;60317;48.880;-0.862;2023-07-31T03:28:27;100178.97;;;20.02;63.90
72359;BME280;60317;48.880;-0.862;2023-07-31T03:30:53;100185.19;;;20.03;64.01
72359;BME280;60317;48.880;-0.862;2023-07-31T03:33:20;100174.44;;;20.03;63.77
72359;BME280;60317;48.880;-0.862;2023-07-31T03:35:47;100183.34;;;20.03;63.95
72359;BME280;60317;48.880;-0.862;2023-07-31T03:38:13;100169.09;;;20.03;63.97
72359;BME280;60317;48.880;-0.862;2023-07-31T03:40:40;100161.88;;;20.03;63.93
72359;BME280;60317;48.880;-0.862;2023-07-31T03:43:06;100167.25;;;20.03;63.98
72359;BME280;60317;48.880;-0.862;2023-07-31T03:45:34;100144.94;;;20.03;63.62
72359;BME280;60317;48.880;-0.862;2023-07-31T03:48:01;100136.91;;;20.03;63.83
72359;BME280;60317;48.880;-0.862;2023-07-31T03:50:27;100131.53;;;20.03;63.83
72359;BME280;60317;48.880;-0.862;2023-07-31T03:52:54;100124.31;;;20.03;63.75
72359;BME280;60317;48.880;-0.862;2023-07-31T03:55:21;100131.53;;;20.03;63.97
72359;BME280;60317;48.880;-0.862;2023-07-31T03:57:47;100128.00;;;20.02;63.97
72359;BME280;60317;48.880;-0.862;2023-07-31T04:00:14;100129.69;;;20.03;63.83
72359;BME280;60317;48.880;-0.862;2023-07-31T04:02:42;100137.75;;;20.03;63.77
72359;BME280;60317;48.880;-0.862;2023-07-31T04:05:08;100145.78;;;20.03;63.83
72359;BME280;60317;48.880;-0.862;2023-07-31T04:07:35;100136.06;;;20.02;63.85
72359;BME280;60317;48.880;-0.862;2023-07-31T04:10:02;100136.06;;;20.02;63.78
72359;BME280;60317;48.880;-0.862;2023-07-31T04:12:29;100148.63;;;20.02;63.94
72359;BME280;60317;48.880;-0.862;2023-07-31T04:14:55;100145.94;;;20.02;63.92
72359;BME280;60317;48.880;-0.862;2023-07-31T04:17:22;100149.47;;;20.02;63.85
72359;BME280;60317;48.880;-0.862;2023-07-31T04:19:50;100144.94;;;20.03;63.90
72359;BME280;60317;48.880;-0.862;2023-07-31T04:22:16;100151.31;;;20.02;63.78
72359;BME280;60317;48.880;-0.862;2023-07-31T04:24:43;100162.88;;;20.02;63.87
72359;BME280;60317;48.880;-0.862;2023-07-31T04:27:10;100159.34;;;20.02;63.95
72359;BME280;60317;48.880;-0.862;2023-07-31T04:29:36;100168.25;;;20.02;63.70
72359;BME280;60317;48.880;-0.862;2023-07-31T04:32:03;100163.72;;;20.03;63.78
72359;BME280;60317;48.880;-0.862;2023-07-31T04:34:30;100157.50;;;20.02;63.78
72359;BME280;60317;48.880;-0.862;2023-07-31T04:36:57;100161.03;;;20.03;63.88
72359;BME280;60317;48.880;-0.862;2023-07-31T04:39:24;100171.78;;;20.03;63.81
72359;BME280;60317;48.880;-0.862;2023-07-31T04:41:50;100153.97;;;20.02;63.91
72359;BME280;60317;48.880;-0.862;2023-07-31T04:44:17;100156.66;;;20.02;63.91
72359;BME280;60317;48.880;-0.862;2023-07-31T04:46:43;100154.81;;;20.02;63.85
72359;BME280;60317;48.880;-0.862;2023-07-31T04:49:11;100144.09;;;20.02;63.90
72359;BME280;60317;48.880;-0.862;2023-07-31T04:51:37;100143.25;;;20.02;63.95
72359;BME280;60317;48.880;-0.862;2023-07-31T04:54:05;100137.75;;;20.03;63.98
72359;BME280;60317;48.880;-0.862;2023-07-31T04:56:32;100130.69;;;20.02;63.83
72359;BME280;60317;48.880;-0.862;2023-07-31T04:58:58;100135.91;;;20.04;64.03
72359;BME280;60317;48.880;-0.862;2023-07-31T05:01:25;100144.09;;;20.02;64.03
72359;BME280;60317;48.880;-0.862;2023-07-31T05:03:51;100139.56;;;20.03;64.18
72359;BME280;60317;48.880;-0.862;2023-07-31T05:06:18;100126.16;;;20.03;64.15
72359;BME280;60317;48.880;-0.862;2023-07-31T05:08:44;100128.28;;;19.99;64.08
72359;BME280;60317;48.880;-0.862;2023-07-31T05:11:12;100119.94;;;20.02;64.16
72359;BME280;60317;48.880;-0.862;2023-07-31T05:13:39;100120.94;;;20.01;64.11
72359;BME280;60317;48.880;-0.862;2023-07-31T05:16:05;100112.91;;;20.01;64.08
72359;BME280;60317;48.880;-0.862;2023-07-31T05:18:32;100106.69;;;20.01;64.11
72359;BME280;60317;48.880;-0.862;2023-07-31T05:20:58;100099.50;;;20.01;64.27
72359;BME280;60317;48.880;-0.862;2023-07-31T05:23:25;100092.41;;;20.00;64.35
72359;BME280;60317;48.880;-0.862;2023-07-31T05:25:51;100095.81;;;20.02;64.21
72359;BME280;60317;48.880;-0.862;2023-07-31T05:28:21;100095.09;;;20.00;64.26
72359;BME280;60317;48.880;-0.862;2023-07-31T05:30:48;100082.56;;;20.01;64.30
72359;BME280;60317;48.880;-0.862;2023-07-31T05:33:14;100087.91;;;20.01;64.26
72359;BME280;60317;48.880;-0.862;2023-07-31T05:35:41;100078.03;;;20.01;64.45
72359;BME280;60317;48.880;-0.862;2023-07-31T05:38:07;100085.22;;;20.01;64.29
72359;BME280;60317;48.880;-0.862;2023-07-31T05:40:34;100070.81;;;20.02;64.24
72359;BME280;60317;48.880;-0.862;2023-07-31T05:43:00;100077.19;;;20.01;64.47
72359;BME280;60317;48.880;-0.862;2023-07-31T05:45:28;100081.69;;;20.00;64.59
72359;BME280;60317;48.880;-0.862;2023-07-31T05:47:54;100076.31;;;20.00;64.55
72359;BME280;60317;48.880;-0.862;2023-07-31T05:50:21;100072.66;;;20.01;64.66
72359;BME280;60317;48.880;-0.862;2023-07-31T05:52:48;100078.16;;;20.00;64.73
72359;BME280;60317;48.880;-0.862;2023-07-31T05:55:14;100071.81;;;20.01;64.76
72359;BME280;60317;48.880;-0.862;2023-07-31T05:57:41;100067.28;;;20.01;64.71
72359;BME280;60317;48.880;-0.862;2023-07-31T06:00:08;100068.25;;;20.00;64.75
72359;BME280;60317;48.880;-0.862;2023-07-31T06:02:36;100065.47;;;20.02;64.81
72359;BME280;60317;48.880;-0.862;2023-07-31T06:05:04;100060.22;;;20.00;64.84
72359;BME280;60317;48.880;-0.862;2023-07-31T06:07:31;100061.94;;;20.01;64.85
72359;BME280;60317;48.880;-0.862;2023-07-31T06:09:57;100068.25;;;20.00;64.89
72359;BME280;60317;48.880;-0.862;2023-07-31T06:12:24;100077.03;;;20.02;65.01
72359;BME280;60317;48.880;-0.862;2023-07-31T06:14:51;100069.97;;;20.01;65.08
72359;BME280;60317;48.880;-0.862;2023-07-31T06:17:17;100079.88;;;20.01;64.97
72359;BME280;60317;48.880;-0.862;2023-07-31T06:19:45;100074.34;;;20.02;65.04
72359;BME280;60317;48.880;-0.862;2023-07-31T06:22:11;100082.56;;;20.01;65.04
72359;BME280;60317;48.880;-0.862;2023-07-31T06:24:38;100068.13;;;20.02;65.14
72359;BME280;60317;48.880;-0.862;2023-07-31T06:27:05;100060.94;;;20.02;65.12
72359;BME280;60317;48.880;-0.862;2023-07-31T06:29:32;100054.84;;;20.00;64.99
72359;BME280;60317;48.880;-0.862;2023-07-31T06:31:59;100057.41;;;20.02;65.01
72359;BME280;60317;48.880;-0.862;2023-07-31T06:34:29;100057.41;;;20.02;65.13
72359;BME280;60317;48.880;-0.862;2023-07-31T06:36:57;100060.94;;;20.02;65.21
72359;BME280;60317;48.880;-0.862;2023-07-31T06:39:23;100061.94;;;20.01;65.26
72359;BME280;60317;48.880;-0.862;2023-07-31T06:41:50;100058.25;;;20.02;65.34
72359;BME280;60317;48.880;-0.862;2023-07-31T06:44:16;100060.94;;;20.02;65.38
72359;BME280;60317;48.880;-0.862;2023-07-31T06:46:43;100056.56;;;20.01;65.51
72359;BME280;60317;48.880;-0.862;2023-07-31T06:49:09;100058.25;;;20.02;65.42
72359;BME280;60317;48.880;-0.862;2023-07-31T06:51:36;100044.84;;;20.02;65.53
72359;BME280;60317;48.880;-0.862;2023-07-31T06:54:03;100045.84;;;20.01;65.65
72359;BME280;60317;48.880;-0.862;2023-07-31T06:56:30;100057.41;;;20.02;65.57
72359;BME280;60317;48.880;-0.862;2023-07-31T06:58:56;100063.63;;;20.02;65.53
72359;BME280;60317;48.880;-0.862;2023-07-31T07:01:23;100052.88;;;20.02;65.81
72359;BME280;60317;48.880;-0.862;2023-07-31T07:03:50;100056.41;;;20.03;65.73
72359;BME280;60317;48.880;-0.862;2023-07-31T07:06:16;100049.22;;;20.03;65.55
72359;BME280;60317;48.880;-0.862;2023-07-31T07:08:43;100042.16;;;20.02;65.77
72359;BME280;60317;48.880;-0.862;2023-07-31T07:11:11;100036.34;;;20.07;65.79
72359;BME280;60317;48.880;-0.862;2023-07-31T07:13:37;100045.84;;;20.11;65.71
72359;BME280;60317;48.880;-0.862;2023-07-31T07:16:05;100049.66;;;20.09;65.85
72359;BME280;60317;48.880;-0.862;2023-07-31T07:18:31;100041.03;;;20.05;66.24
72359;BME280;60317;48.880;-0.862;2023-07-31T07:20:58;100042.88;;;20.05;66.07
72359;BME280;60317;48.880;-0.862;2023-07-31T07:23:24;100030.31;;;20.05;66.24
72359;BME280;60317;48.880;-0.862;2023-07-31T07:25:51;100034.84;;;20.05;66.25
72359;BME280;60317;48.880;-0.862;2023-07-31T07:28:19;100033.97;;;20.04;66.23
72359;BME280;60317;48.880;-0.862;2023-07-31T07:30:50;100045.41;;;20.06;66.28
72359;BME280;60317;48.880;-0.862;2023-07-31T07:33:17;100041.03;;;20.05;66.19
72359;BME280;60317;48.880;-0.862;2023-07-31T07:35:44;100038.47;;;20.03;66.29
72359;BME280;60317;48.880;-0.862;2023-07-31T07:38:10;100033.97;;;20.04;66.04
72359;BME280;60317;48.880;-0.862;2023-07-31T07:40:38;100040.88;;;20.07;66.10
72359;BME280;60317;48.880;-0.862;2023-07-31T07:43:05;100041.72;;;20.07;66.20
72359;BME280;60317;48.880;-0.862;2023-07-31T07:45:33;100039.19;;;20.06;66.33
72359;BME280;60317;48.880;-0.862;2023-07-31T07:47:59;100043.56;;;20.07;66.28
72359;BME280;60317;48.880;-0.862;2023-07-31T07:50:26;100028.47;;;20.06;66.24
72359;BME280;60317;48.880;-0.862;2023-07-31T07:52:52;100017.75;;;20.06;66.34
72359;BME280;60317;48.880;-0.862;2023-07-31T07:55:19;100018.59;;;20.06;66.28
72359;BME280;60317;48.880;-0.862;2023-07-31T07:57:45;100020.41;;;20.06;66.38
72359;BME280;60317;48.880;-0.862;2023-07-31T08:00:12;100014.22;;;20.05;66.54
72359;BME280;60317;48.880;-0.862;2023-07-31T08:02:40;100008.84;;;20.05;66.51
72359;BME280;60317;48.880;-0.862;2023-07-31T08:05:07;100004.31;;;20.06;66.30
72359;BME280;60317;48.880;-0.862;2023-07-31T08:07:35;100008.84;;;20.05;66.50
72359;BME280;60317;48.880;-0.862;2023-07-31T08:10:01;100004.31;;;20.06;66.45
72359;BME280;60317;48.880;-0.862;2023-07-31T08:12:28;100007.00;;;20.06;66.62
72359;BME280;60317;48.880;-0.862;2023-07-31T08:14:54;100005.16;;;20.06;66.79
72359;BME280;60317;48.880;-0.862;2023-07-31T08:17:21;100006.00;;;20.07;66.68
72359;BME280;60317;48.880;-0.862;2023-07-31T08:19:49;100001.63;;;20.06;66.80
72359;BME280;60317;48.880;-0.862;2023-07-31T08:22:15;100004.03;;;20.09;66.87
72359;BME280;60317;48.880;-0.862;2023-07-31T08:24:42;99995.28;;;20.07;66.70
72359;BME280;60317;48.880;-0.862;2023-07-31T08:27:08;99991.75;;;20.06;66.78
72359;BME280;60317;48.880;-0.862;2023-07-31T08:29:35;99997.84;;;20.08;66.80
72359;BME280;60317;48.880;-0.862;2023-07-31T08:32:01;99991.75;;;20.06;67.02
72359;BME280;60317;48.880;-0.862;2023-07-31T08:34:28;99995.28;;;20.07;67.03
72359;BME280;60317;48.880;-0.862;2023-07-31T08:36:55;99999.66;;;20.08;67.23
72359;BME280;60317;48.880;-0.862;2023-07-31T08:39:22;99990.75;;;20.07;67.34
72359;BME280;60317;48.880;-0.862;2023-07-31T08:41:48;99990.75;;;20.07;67.09
72359;BME280;60317;48.880;-0.862;2023-07-31T08:44:15;99993.31;;;20.09;67.05
72359;BME280;60317;48.880;-0.862;2023-07-31T08:46:44;99989.78;;;20.08;67.43
72359;BME280;60317;48.880;-0.862;2023-07-31T08:49:12;99982.59;;;20.09;67.21
72359;BME280;60317;48.880;-0.862;2023-07-31T08:51:41;99981.75;;;20.08;67.60
72359;BME280;60317;48.880;-0.862;2023-07-31T08:54:09;99982.59;;;20.09;67.81
72359;BME280;60317;48.880;-0.862;2023-07-31T08:56:36;99973.69;;;20.08;67.63
72359;BME280;60317;48.880;-0.862;2023-07-31T08:59:03;99963.81;;;20.09;67.98
72359;BME280;60317;48.880;-0.862;2023-07-31T09:01:35;99965.50;;;20.10;67.90
72359;BME280;60317;48.880;-0.862;2023-07-31T09:04:03;99955.75;;;20.09;67.86
72359;BME280;60317;48.880;-0.862;2023-07-31T09:06:31;99963.81;;;20.09;68.06
72359;BME280;60317;48.880;-0.862;2023-07-31T09:08:58;99968.16;;;20.10;67.94
72359;BME280;60317;48.880;-0.862;2023-07-31T09:11:26;99972.53;;;20.11;67.95
72359;BME280;60317;48.880;-0.862;2023-07-31T09:13:53;99960.97;;;20.10;68.29
72359;BME280;60317;48.880;-0.862;2023-07-31T09:16:27;99971.69;;;20.10;68.24
72359;BME280;60317;48.880;-0.862;2023-07-31T09:18:54;99968.03;;;20.11;68.41
72359;BME280;60317;48.880;-0.862;2023-07-31T09:21:21;99960.97;;;20.10;68.50
72359;BME280;60317;48.880;-0.862;2023-07-31T09:23:47;99968.88;;;20.12;68.44
72359;BME280;60317;48.880;-0.862;2023-07-31T09:26:31;99966.19;;;20.12;68.92
72359;BME280;60317;48.880;-0.862;2023-07-31T09:28:58;99961.69;;;20.12;68.29
72359;BME280;60317;48.880;-0.862;2023-07-31T09:31:33;99962.53;;;20.13;68.53
72359;BME280;60317;48.880;-0.862;2023-07-31T09:34:00;99955.31;;;20.13;68.38
72359;BME280;60317;48.880;-0.862;2023-07-31T09:36:29;99958.84;;;20.14;68.30
72359;BME280;60317;48.880;-0.862;2023-07-31T09:38:55;99956.16;;;20.14;68.57
72359;BME280;60317;48.880;-0.862;2023-07-31T09:41:23;99965.03;;;20.14;68.65
72359;BME280;60317;48.880;-0.862;2023-07-31T09:43:54;99966.88;;;20.14;68.54
72359;BME280;60317;48.880;-0.862;2023-07-31T09:46:21;99973.09;;;20.14;68.48
72359;BME280;60317;48.880;-0.862;2023-07-31T09:48:48;99963.25;;;20.15;68.62
72359;BME280;60317;48.880;-0.862;2023-07-31T09:51:14;99961.53;;;20.14;68.63
72359;BME280;60317;48.880;-0.862;2023-07-31T09:53:41;99961.69;;;20.12;68.77
72359;BME280;60317;48.880;-0.862;2023-07-31T09:56:07;99971.28;;;20.15;68.84
72359;BME280;60317;48.880;-0.862;2023-07-31T09:58:34;99956.16;;;20.14;68.76
72359;BME280;60317;48.880;-0.862;2023-07-31T10:01:02;99949.94;;;20.13;68.76
72359;BME280;60317;48.880;-0.862;2023-07-31T10:03:29;99949.81;;;20.15;68.90
72359;BME280;60317;48.880;-0.862;2023-07-31T10:05:57;99940.06;;;20.14;68.65
72359;BME280;60317;48.880;-0.862;2023-07-31T10:08:27;99928.34;;;20.15;68.83
72359;BME280;60317;48.880;-0.862;2023-07-31T10:10:58;99928.34;;;20.15;69.07
72359;BME280;60317;48.880;-0.862;2023-07-31T10:13:26;99916.63;;;20.16;68.95
72359;BME280;60317;48.880;-0.862;2023-07-31T10:15:54;99917.47;;;20.16;68.95
72359;BME280;60317;48.880;-0.862;2023-07-31T10:18:22;99917.47;;;20.16;68.83
72359;BME280;60317;48.880;-0.862;2023-07-31T10:20:49;99913.94;;;20.16;68.70
72359;BME280;60317;48.880;-0.862;2023-07-31T10:23:16;99904.22;;;20.15;69.13
72359;BME280;60317;48.880;-0.862;2023-07-31T10:25:43;99891.63;;;20.15;68.82
72359;BME280;60317;48.880;-0.862;2023-07-31T10:28:11;99897.69;;;20.17;69.21
72359;BME280;60317;48.880;-0.862;2023-07-31T10:30:39;99887.94;;;20.16;69.16
72359;BME280;60317;48.880;-0.862;2023-07-31T10:33:06;99895.84;;;20.18;69.27
72359;BME280;60317;48.880;-0.862;2023-07-31T10:35:34;99906.56;;;20.18;69.41
72359;BME280;60317;48.880;-0.862;2023-07-31T10:38:09;99903.91;;;20.18;69.23
72359;BME280;60317;48.880;-0.862;2023-07-31T10:40:36;99902.09;;;20.18;69.33
72359;BME280;60317;48.880;-0.862;2023-07-31T10:43:03;99913.66;;;20.19;69.31
72359;BME280;60317;48.880;-0.862;2023-07-31T10:45:31;99900.25;;;20.19;69.37
72359;BME280;60317;48.880;-0.862;2023-07-31T10:48:00;99898.53;;;20.18;69.42
72359;BME280;60317;48.880;-0.862;2023-07-31T10:50:28;99889.63;;;20.17;69.30
72359;BME280;60317;48.880;-0.862;2023-07-31T10:52:57;99881.59;;;20.17;69.42
72359;BME280;60317;48.880;-0.862;2023-07-31T10:55:26;99874.38;;;20.18;69.64
72359;BME280;60317;48.880;-0.862;2023-07-31T10:57:53;99885.13;;;20.18;69.70
72359;BME280;60317;48.880;-0.862;2023-07-31T11:00:22;99876.09;;;20.19;69.55
72359;BME280;60317;48.880;-0.862;2023-07-31T11:02:57;99875.25;;;20.18;69.57
72359;BME280;60317;48.880;-0.862;2023-07-31T11:05:41;99870.72;;;20.19;69.42
72359;BME280;60317;48.880;-0.862;2023-07-31T11:08:14;99870.72;;;20.19;69.92
72359;BME280;60317;48.880;-0.862;2023-07-31T11:10:41;99876.94;;;20.19;69.75
72359;BME280;60317;48.880;-0.862;2023-07-31T11:13:08;99884.97;;;20.19;69.42
72359;BME280;60317;48.880;-0.862;2023-07-31T11:15:34;99878.78;;;20.19;69.83
72359;BME280;60317;48.880;-0.862;2023-07-31T11:18:02;99875.94;;;20.20;69.75
72359;BME280;60317;48.880;-0.862;2023-07-31T11:20:29;99880.47;;;20.20;69.71
72359;BME280;60317;48.880;-0.862;2023-07-31T11:22:59;99875.94;;;20.20;69.85
72359;BME280;60317;48.880;-0.862;2023-07-31T11:25:30;99873.25;;;20.20;70.06
72359;BME280;60317;48.880;-0.862;2023-07-31T11:27:57;99872.41;;;20.20;69.90
72359;BME280;60317;48.880;-0.862;2023-07-31T11:30:24;99869.72;;;20.20;69.83
72359;BME280;60317;48.880;-0.862;2023-07-31T11:32:50;99867.03;;;20.20;70.02
72359;BME280;60317;48.880;-0.862;2023-07-31T11:35:17;99859.00;;;20.20;69.86
72359;BME280;60317;48.880;-0.862;2023-07-31T11:37:44;99856.31;;;20.20;70.39
72359;BME280;60317;48.880;-0.862;2023-07-31T11:40:11;99864.19;;;20.21;70.59
72359;BME280;60317;48.880;-0.862;2023-07-31T11:42:39;99863.34;;;20.21;70.04
72359;BME280;60317;48.880;-0.862;2023-07-31T11:45:06;99858.84;;;20.21;70.24
72359;BME280;60317;48.880;-0.862;2023-07-31T11:47:34;99846.28;;;20.22;70.41
72359;BME280;60317;48.880;-0.862;2023-07-31T11:50:01;99846.41;;;20.20;70.03
72359;BME280;60317;48.880;-0.862;2023-07-31T11:52:30;99848.09;;;20.21;70.32
72359;BME280;60317;48.880;-0.862;2023-07-31T11:54:59;99854.47;;;20.20;70.43
72359;BME280;60317;48.880;-0.862;2023-07-31T11:57:26;99852.63;;;20.21;70.44
72359;BME280;60317;48.880;-0.862;2023-07-31T11:59:56;99849.09;;;20.20;70.15
72359;BME280;60317;48.880;-0.862;2023-07-31T12:02:23;99847.25;;;20.21;70.31
72359;BME280;60317;48.880;-0.862;2023-07-31T12:04:50;99851.66;;;20.22;70.24
72359;BME280;60317;48.880;-0.862;2023-07-31T12:07:17;99833.72;;;20.22;70.35
72359;BME280;60317;48.880;-0.862;2023-07-31T12:09:52;99841.91;;;20.21;70.18
72359;BME280;60317;48.880;-0.862;2023-07-31T12:12:20;99838.25;;;20.22;70.62
72359;BME280;60317;48.880;-0.862;2023-07-31T12:14:46;99832.88;;;20.22;70.41
72359;BME280;60317;48.880;-0.862;2023-07-31T12:17:14;99829.31;;;20.21;70.88
72359;BME280;60317;48.880;-0.862;2023-07-31T12:19:41;99827.50;;;20.22;70.56
72359;BME280;60317;48.880;-0.862;2023-07-31T12:22:12;99825.50;;;20.24;70.36
72359;BME280;60317;48.880;-0.862;2023-07-31T12:24:39;99815.63;;;20.24;70.07
72359;BME280;60317;48.880;-0.862;2023-07-31T12:27:09;99805.88;;;20.23;70.70
72359;BME280;60317;48.880;-0.862;2023-07-31T12:29:35;99804.88;;;20.24;70.67
72359;BME280;60317;48.880;-0.862;2023-07-31T12:32:20;99800.34;;;20.25;70.72
72359;BME280;60317;48.880;-0.862;2023-07-31T12:34:47;99793.31;;;20.24;70.69
72359;BME280;60317;48.880;-0.862;2023-07-31T12:37:14;99800.34;;;20.25;70.51
72359;BME280;60317;48.880;-0.862;2023-07-31T12:39:40;99786.94;;;20.25;70.47
72359;BME280;60317;48.880;-0.862;2023-07-31T12:42:07;99785.25;;;20.24;70.57
72359;BME280;60317;48.880;-0.862;2023-07-31T12:44:33;99784.25;;;20.25;70.81
72359;BME280;60317;48.880;-0.862;2023-07-31T12:47:00;99793.19;;;20.25;70.98
72359;BME280;60317;48.880;-0.862;2023-07-31T12:49:28;99783.41;;;20.24;71.23